createdAt,value
2022-09-07T00:00:39.219Z,85.05
2022-09-07T00:01:39.210Z,85.40
2022-09-07T00:02:39.242Z,85.70
2022-09-07T00:03:40.203Z,85.70
2022-09-07T00:04:39.279Z,86.00
2022-09-07T00:05:39.227Z,86.00
2022-09-07T00:06:39.189Z,86.10
2022-09-07T00:07:39.171Z,86.10
2022-09-07T00:08:39.173Z,86.30
2022-09-07T00:09:39.194Z,86.30
2022-09-07T00:10:39.141Z,86.30
2022-09-07T00:11:39.139Z,86.41
2022-09-07T00:12:39.132Z,85.76
2022-09-07T00:13:39.121Z,85.66
2022-09-07T00:14:39.107Z,85.86
2022-09-07T00:15:39.133Z,86.10
2022-09-07T00:16:39.156Z,86.71
2022-09-07T00:17:39.119Z,86.91
2022-09-07T00:18:42.483Z,86.71
2022-09-07T00:19:41.069Z,86.67
2022-09-07T00:20:39.098Z,87.01
2022-09-07T00:21:39.067Z,87.01
2022-09-07T00:22:39.042Z,87.01
2022-09-07T00:23:40.041Z,87.01
2022-09-07T00:24:39.033Z,87.12
2022-09-07T00:25:39.063Z,88.02
2022-09-07T00:26:39.017Z,88.26
2022-09-07T00:27:39.017Z,88.12
2022-09-07T00:28:39.006Z,87.92
2022-09-07T00:29:38.991Z,87.62
2022-09-07T00:30:39.013Z,87.36
2022-09-07T00:31:39.060Z,88.26
2022-09-07T00:32:38.979Z,88.81
2022-09-07T00:33:38.961Z,88.71
2022-09-07T00:34:38.953Z,89.52
2022-09-07T00:35:38.986Z,89.52
2022-09-07T00:36:38.936Z,89.52
2022-09-07T00:37:38.974Z,89.62
2022-09-07T00:38:38.929Z,89.72
2022-09-07T00:39:38.970Z,89.52
2022-09-07T00:40:38.945Z,89.92
2022-09-07T00:41:38.900Z,89.72
2022-09-07T00:42:38.904Z,89.52
2022-09-07T00:43:38.905Z,89.22
2022-09-07T00:44:38.882Z,89.42
2022-09-07T00:45:38.901Z,89.83
2022-09-07T00:46:38.923Z,89.83
2022-09-07T00:47:38.855Z,89.62
2022-09-07T00:48:38.851Z,89.68
2022-09-07T00:49:38.842Z,89.98
2022-09-07T00:50:38.869Z,89.64
2022-09-07T00:51:38.831Z,89.58
2022-09-07T00:52:38.847Z,89.64
2022-09-07T00:53:38.825Z,89.43
2022-09-07T00:54:38.804Z,89.37
2022-09-07T00:55:38.829Z,89.13
2022-09-07T00:56:38.810Z,89.03
2022-09-07T00:57:38.780Z,88.63
2022-09-07T00:58:38.777Z,88.63
2022-09-07T00:59:38.773Z,88.48
2022-09-07T01:00:38.790Z,88.63
2022-09-07T01:01:38.858Z,88.73
2022-09-07T01:02:38.853Z,88.68
2022-09-07T01:03:38.729Z,88.73
2022-09-07T01:04:38.724Z,88.59
2022-09-07T01:05:38.745Z,88.23
2022-09-07T01:06:38.707Z,88.39
2022-09-07T01:07:38.700Z,87.58
2022-09-07T01:08:38.697Z,88.08
2022-09-07T01:09:38.688Z,88.08
2022-09-07T01:10:38.701Z,88.18
2022-09-07T01:11:38.665Z,88.48
2022-09-07T01:12:38.658Z,88.48
2022-09-07T01:13:38.653Z,88.73
2022-09-07T01:14:38.675Z,88.73
2022-09-07T01:15:38.694Z,88.77
2022-09-07T01:16:38.637Z,88.73
2022-09-07T01:17:38.624Z,88.57
2022-09-07T01:18:38.617Z,88.67
2022-09-07T01:19:38.608Z,88.63
2022-09-07T01:20:38.645Z,88.73
2022-09-07T01:21:38.589Z,88.63
2022-09-07T01:22:38.587Z,88.93
2022-09-07T01:23:38.582Z,88.83
2022-09-07T01:24:38.595Z,88.53
2022-09-07T01:25:38.565Z,88.23
2022-09-07T01:26:38.581Z,88.73
2022-09-07T01:27:38.547Z,88.83
2022-09-07T01:28:38.540Z,89.78
2022-09-07T01:29:38.534Z,89.58
2022-09-07T01:30:38.520Z,89.48
2022-09-07T01:31:38.547Z,89.58
2022-09-07T01:32:38.553Z,90.08
2022-09-07T01:33:38.500Z,90.08
2022-09-07T01:34:38.501Z,90.19
2022-09-07T01:35:38.472Z,89.98
2022-09-07T01:36:39.501Z,89.88
2022-09-07T01:37:38.470Z,89.92
2022-09-07T01:38:38.467Z,89.78
2022-09-07T01:39:38.506Z,89.68
2022-09-07T01:40:38.452Z,89.88
2022-09-07T01:41:38.466Z,89.48
2022-09-07T01:42:39.435Z,89.58
2022-09-07T01:43:38.434Z,89.88
2022-09-07T01:44:38.438Z,89.88
2022-09-07T01:45:38.427Z,90.08
2022-09-07T01:46:38.454Z,90.12
2022-09-07T01:47:38.399Z,90.33
2022-09-07T01:48:38.393Z,90.94
2022-09-07T01:49:38.388Z,89.88
2022-09-07T01:50:38.386Z,90.49
2022-09-07T01:51:38.408Z,90.83
2022-09-07T01:52:38.364Z,90.73
2022-09-07T01:53:38.363Z,90.94
2022-09-07T01:54:38.348Z,90.47
2022-09-07T01:55:38.334Z,91.49
2022-09-07T01:56:38.361Z,92.09
2022-09-07T01:57:38.329Z,92.54
2022-09-07T01:58:38.312Z,91.89
2022-09-07T01:59:38.305Z,91.58
2022-09-07T02:00:38.296Z,91.28
2022-09-07T02:01:38.344Z,92.60
2022-09-07T02:02:39.377Z,92.49
2022-09-07T02:03:38.274Z,92.49
2022-09-07T02:04:38.265Z,92.49
2022-09-07T02:05:38.257Z,92.49
2022-09-07T02:06:38.275Z,91.99
2022-09-07T02:07:38.253Z,91.89
2022-09-07T02:08:38.237Z,91.99
2022-09-07T02:09:38.234Z,92.60
2022-09-07T02:10:38.219Z,92.40
2022-09-07T02:11:38.245Z,92.54
2022-09-07T02:12:38.199Z,93.19
2022-09-07T02:13:38.196Z,93.35
2022-09-07T02:14:38.185Z,93.35
2022-09-07T02:15:38.248Z,93.55
2022-09-07T02:16:38.212Z,93.15
2022-09-07T02:17:38.163Z,93.15
2022-09-07T02:18:38.151Z,93.15
2022-09-07T02:19:38.153Z,93.04
2022-09-07T02:20:38.135Z,92.99
2022-09-07T02:21:38.125Z,93.29
2022-09-07T02:22:38.147Z,93.59
2022-09-07T02:23:38.123Z,93.59
2022-09-07T02:24:38.098Z,93.84
2022-09-07T02:25:38.093Z,93.59
2022-09-07T02:26:38.096Z,93.49
2022-09-07T02:27:38.102Z,93.49
2022-09-07T02:28:38.068Z,93.19
2022-09-07T02:29:38.066Z,93.04
2022-09-07T02:30:38.190Z,93.29
2022-09-07T02:31:38.048Z,92.58
2022-09-07T02:32:38.067Z,92.79
2022-09-07T02:33:38.051Z,92.64
2022-09-07T02:34:38.021Z,92.74
2022-09-07T02:35:38.011Z,92.94
2022-09-07T02:36:38.010Z,92.64
2022-09-07T02:37:38.045Z,92.69
2022-09-07T02:38:37.993Z,92.64
2022-09-07T02:39:38.011Z,92.60
2022-09-07T02:40:37.975Z,92.80
2022-09-07T02:41:37.966Z,92.80
2022-09-07T02:42:37.988Z,92.29
2022-09-07T02:43:37.955Z,91.99
2022-09-07T02:44:37.943Z,91.89
2022-09-07T02:45:37.932Z,91.54
2022-09-07T02:46:38.088Z,91.34
2022-09-07T02:47:37.924Z,91.08
2022-09-07T02:48:37.911Z,91.18
2022-09-07T02:49:38.236Z,91.14
2022-09-07T02:50:37.903Z,91.44
2022-09-07T02:51:37.901Z,91.44
2022-09-07T02:52:37.906Z,91.34
2022-09-07T02:53:37.872Z,91.14
2022-09-07T02:54:37.871Z,91.34
2022-09-07T02:55:37.856Z,91.44
2022-09-07T02:56:37.851Z,90.78
2022-09-07T02:57:37.871Z,90.88
2022-09-07T02:58:37.834Z,90.94
2022-09-07T02:59:37.831Z,90.33
2022-09-07T03:00:37.849Z,90.12
2022-09-07T03:01:37.910Z,91.24
2022-09-07T03:02:37.907Z,91.94
2022-09-07T03:03:37.811Z,92.55
2022-09-07T03:04:37.811Z,93.26
2022-09-07T03:05:37.780Z,92.55
2022-09-07T03:06:37.777Z,92.81
2022-09-07T03:07:42.173Z,92.21
2022-09-07T03:08:39.777Z,91.30
2022-09-07T03:09:37.749Z,90.63
2022-09-07T03:10:37.753Z,91.64
2022-09-07T03:11:37.745Z,92.80
2022-09-07T03:12:37.764Z,93.20
2022-09-07T03:13:37.728Z,93.15
2022-09-07T03:14:37.726Z,93.10
2022-09-07T03:15:37.739Z,93.20
2022-09-07T03:16:37.697Z,93.10
2022-09-07T03:17:37.716Z,92.80
2022-09-07T03:18:37.710Z,92.90
2022-09-07T03:19:37.673Z,92.40
2022-09-07T03:20:37.670Z,91.78
2022-09-07T03:21:37.672Z,91.54
2022-09-07T03:22:37.679Z,91.44
2022-09-07T03:23:37.646Z,91.34
2022-09-07T03:24:37.637Z,91.39
2022-09-07T03:25:37.629Z,90.99
2022-09-07T03:26:37.618Z,91.09
2022-09-07T03:27:37.654Z,91.09
2022-09-07T03:28:37.606Z,90.39
2022-09-07T03:29:41.413Z,91.09
2022-09-07T03:30:38.649Z,90.19
2022-09-07T03:31:37.592Z,90.28
2022-09-07T03:32:37.621Z,91.09
2022-09-07T03:33:37.573Z,90.49
2022-09-07T03:34:37.568Z,91.19
2022-09-07T03:35:37.564Z,91.09
2022-09-07T03:36:37.559Z,90.69
2022-09-07T03:37:37.572Z,91.39
2022-09-07T03:38:37.534Z,91.44
2022-09-07T03:39:37.580Z,91.39
2022-09-07T03:40:37.524Z,92.55
2022-09-07T03:41:37.513Z,92.14
2022-09-07T03:42:37.545Z,92.25
2022-09-07T03:43:37.498Z,92.05
2022-09-07T03:44:37.490Z,92.50
2022-09-07T03:45:37.534Z,91.30
2022-09-07T03:46:37.483Z,92.30
2022-09-07T03:47:37.527Z,92.30
2022-09-07T03:48:37.460Z,91.90
2022-09-07T03:49:37.455Z,92.41
2022-09-07T03:50:37.445Z,92.21
2022-09-07T03:51:37.442Z,92.36
2022-09-07T03:52:37.455Z,92.46
2022-09-07T03:53:37.424Z,91.66
2022-09-07T03:54:39.648Z,91.39
2022-09-07T03:55:38.421Z,90.65
2022-09-07T03:56:37.395Z,90.95
2022-09-07T03:57:37.423Z,91.25
2022-09-07T03:58:37.388Z,90.61
2022-09-07T03:59:37.377Z,90.91
2022-09-07T04:00:37.368Z,90.61
2022-09-07T04:01:37.399Z,90.10
2022-09-07T04:02:37.464Z,90.81
2022-09-07T04:03:37.343Z,91.50
2022-09-07T04:04:37.341Z,92.10
2022-09-07T04:05:37.328Z,92.71
2022-09-07T04:06:37.327Z,92.71
2022-09-07T04:07:37.347Z,92.36
2022-09-07T04:08:37.328Z,92.06
2022-09-07T04:09:37.301Z,92.36
2022-09-07T04:10:37.290Z,91.66
2022-09-07T04:11:37.284Z,91.35
2022-09-07T04:12:37.314Z,91.35
2022-09-07T04:13:37.276Z,91.46
2022-09-07T04:14:37.271Z,91.25
2022-09-07T04:15:37.258Z,91.35
2022-09-07T04:16:37.323Z,91.35
2022-09-07T04:17:37.267Z,92.26
2022-09-07T04:18:37.235Z,92.81
2022-09-07T04:19:37.221Z,92.30
2022-09-07T04:20:37.241Z,92.10
2022-09-07T04:21:37.229Z,92.61
2022-09-07T04:22:37.228Z,92.00
2022-09-07T04:23:37.197Z,91.60
2022-09-07T04:24:37.182Z,91.30
2022-09-07T04:25:37.177Z,91.15
2022-09-07T04:26:37.170Z,91.05
2022-09-07T04:27:37.195Z,91.35
2022-09-07T04:28:37.144Z,91.05
2022-09-07T04:29:37.153Z,91.25
2022-09-07T04:30:37.173Z,91.35
2022-09-07T04:31:37.131Z,90.45
2022-09-07T04:32:37.145Z,90.85
2022-09-07T04:33:37.120Z,90.55
2022-09-07T04:34:37.108Z,90.30
2022-09-07T04:35:37.103Z,90.00
2022-09-07T04:36:37.093Z,90.00
2022-09-07T04:37:37.118Z,89.90
2022-09-07T04:38:37.079Z,89.90
2022-09-07T04:39:37.106Z,90.00
2022-09-07T04:40:37.068Z,89.70
2022-09-07T04:41:37.065Z,89.79
2022-09-07T04:42:37.076Z,90.00
2022-09-07T04:43:37.039Z,89.90
2022-09-07T04:44:37.032Z,90.00
2022-09-07T04:45:37.089Z,89.70
2022-09-07T04:46:37.018Z,89.39
2022-09-07T04:47:37.037Z,89.50
2022-09-07T04:48:37.102Z,89.39
2022-09-07T04:49:36.992Z,89.59
2022-09-07T04:50:36.981Z,89.43
2022-09-07T04:51:36.975Z,89.43
2022-09-07T04:52:36.993Z,89.84
2022-09-07T04:53:36.959Z,89.34
2022-09-07T04:54:36.966Z,89.03
2022-09-07T04:55:36.995Z,89.03
2022-09-07T04:56:36.944Z,89.23
2022-09-07T04:57:36.963Z,89.43
2022-09-07T04:58:36.924Z,89.54
2022-09-07T04:59:36.917Z,89.19
2022-09-07T05:00:36.909Z,89.64
2022-09-07T05:01:36.927Z,89.29
2022-09-07T05:02:37.046Z,89.09
2022-09-07T05:03:36.885Z,88.68
2022-09-07T05:04:36.877Z,88.89
2022-09-07T05:05:36.877Z,88.48
2022-09-07T05:06:36.866Z,88.68
2022-09-07T05:07:36.879Z,88.89
2022-09-07T05:08:36.849Z,89.79
2022-09-07T05:09:36.853Z,89.29
2022-09-07T05:10:36.833Z,90.00
2022-09-07T05:11:36.823Z,91.21
2022-09-07T05:12:36.843Z,91.46
2022-09-07T05:13:36.813Z,92.46
2022-09-07T05:14:36.803Z,92.36
2022-09-07T05:15:36.793Z,92.36
2022-09-07T05:16:36.871Z,92.50
2022-09-07T05:17:36.794Z,92.71
2022-09-07T05:18:36.765Z,93.01
2022-09-07T05:19:36.761Z,93.96
2022-09-07T05:20:36.749Z,94.27
2022-09-07T05:21:36.746Z,95.02
2022-09-07T05:22:36.771Z,95.53
2022-09-07T05:23:36.729Z,95.58
2022-09-07T05:24:36.717Z,95.53
2022-09-07T05:25:36.714Z,95.83
2022-09-07T05:26:36.706Z,95.83
2022-09-07T05:27:36.723Z,96.13
2022-09-07T05:28:36.690Z,96.34
2022-09-07T05:31:38.666Z,95.73
2022-09-07T05:32:36.690Z,95.38
2022-09-07T05:34:38.643Z,94.07
2022-09-07T05:35:36.634Z,94.57
2022-09-07T05:36:36.635Z,94.73
2022-09-07T05:37:36.646Z,94.67
2022-09-07T05:38:36.615Z,94.87
2022-09-07T05:39:36.685Z,94.63
2022-09-07T05:40:40.499Z,95.34
2022-09-07T05:41:37.592Z,95.34
2022-09-07T05:42:36.632Z,95.39
2022-09-07T05:43:37.100Z,95.59
2022-09-07T05:44:44.354Z,95.39
2022-09-07T05:45:38.604Z,94.79
2022-09-07T05:46:36.554Z,94.54
2022-09-07T05:47:36.566Z,94.94
2022-09-07T05:48:36.534Z,94.54
2022-09-07T05:49:36.534Z,94.74
2022-09-07T05:50:36.545Z,93.93
2022-09-07T05:51:36.512Z,94.29
2022-09-07T05:52:36.529Z,94.44
2022-09-07T05:53:36.494Z,94.84
2022-09-07T05:54:36.498Z,94.54
2022-09-07T05:55:36.479Z,94.74
2022-09-07T05:56:36.547Z,94.39
2022-09-07T05:57:36.489Z,94.34
2022-09-07T05:58:36.455Z,93.33
2022-09-07T05:59:36.444Z,94.39
2022-09-07T06:00:36.449Z,93.34
2022-09-07T06:01:36.434Z,93.85
2022-09-07T06:02:39.668Z,93.89
2022-09-07T06:03:37.424Z,93.24
2022-09-07T06:04:36.418Z,92.88
2022-09-07T06:05:36.407Z,92.63
2022-09-07T06:06:36.398Z,92.83
2022-09-07T06:07:36.415Z,92.94
2022-09-07T06:08:36.384Z,92.88
2022-09-07T06:10:44.891Z,92.74
2022-09-07T06:11:38.357Z,92.79
2022-09-07T06:12:36.375Z,92.39
2022-09-07T06:13:36.348Z,92.19
2022-09-07T06:14:36.343Z,92.29
2022-09-07T06:15:36.332Z,92.25
2022-09-07T06:16:36.378Z,91.89
2022-09-07T06:17:36.341Z,91.04
2022-09-07T06:18:36.311Z,91.34
2022-09-07T06:19:36.297Z,90.69
2022-09-07T06:20:36.292Z,89.39
2022-09-07T06:21:36.283Z,89.79
2022-09-07T06:22:36.298Z,89.48
2022-09-07T06:23:36.266Z,90.29
2022-09-07T06:24:36.270Z,90.79
2022-09-07T06:25:36.254Z,89.18
2022-09-07T06:26:36.244Z,89.48
2022-09-07T06:27:36.263Z,90.79
2022-09-07T06:28:36.227Z,90.89
2022-09-07T06:29:36.222Z,90.09
2022-09-07T06:30:36.218Z,89.28
2022-09-07T06:33:37.217Z,88.94
2022-09-07T06:34:36.182Z,89.64
2022-09-07T06:35:36.174Z,88.90
2022-09-07T06:36:36.167Z,89.40
2022-09-07T06:37:36.184Z,88.49
2022-09-07T06:38:36.149Z,88.19
2022-09-07T06:39:36.217Z,88.35
2022-09-07T06:40:36.131Z,88.05
2022-09-07T06:42:38.150Z,88.15
2022-09-07T06:43:36.118Z,88.05
2022-09-07T06:44:36.109Z,88.15
2022-09-07T06:45:36.133Z,87.81
2022-09-07T06:47:38.115Z,87.04
2022-09-07T06:48:36.103Z,87.96
2022-09-07T06:49:36.071Z,86.50
2022-09-07T06:50:36.091Z,86.86
2022-09-07T06:51:36.089Z,86.36
2022-09-07T06:53:39.569Z,85.46
2022-09-07T06:55:38.023Z,84.71
2022-09-07T06:56:36.010Z,85.61
2022-09-07T06:57:36.018Z,84.57
2022-09-07T06:58:39.138Z,84.88
2022-09-07T06:59:36.993Z,82.97
2022-09-07T07:00:36.045Z,82.37
2022-09-07T07:01:35.979Z,82.37
2022-09-07T07:02:35.973Z,82.67
2022-09-07T07:03:36.049Z,82.32
2022-09-07T07:04:40.575Z,81.87
2022-09-07T07:05:37.944Z,81.82
2022-09-07T07:06:35.945Z,81.23
2022-09-07T07:07:35.943Z,82.32
2022-09-07T07:08:35.950Z,81.32
2022-09-07T07:09:35.917Z,81.79
2022-09-07T07:10:35.907Z,82.69
2022-09-07T07:11:35.903Z,82.49
2022-09-07T07:14:06.609Z,83.29
2022-09-07T07:15:06.623Z,84.63
2022-09-07T07:16:06.651Z,85.44
2022-09-07T07:17:06.612Z,83.73
2022-09-07T07:18:20.331Z,83.09
2022-09-07T07:19:09.727Z,83.69
2022-09-07T07:20:08.734Z,82.29
2022-09-07T07:21:07.760Z,81.74
2022-09-07T07:22:42.621Z,79.54
2022-09-07T07:23:09.731Z,81.35
2022-09-07T07:24:08.390Z,81.15
2022-09-07T07:25:08.691Z,81.24
2022-09-07T07:26:07.685Z,81.30
2022-09-07T07:27:07.679Z,81.01
2022-09-07T07:29:09.661Z,80.87
2022-09-07T07:30:07.683Z,80.61
2022-09-07T07:31:11.340Z,81.07
2022-09-07T07:32:09.639Z,80.87
2022-09-07T07:33:07.719Z,79.93
2022-09-07T07:34:07.699Z,80.33
2022-09-07T07:35:07.615Z,81.03
2022-09-07T07:36:07.610Z,81.13
2022-09-07T07:37:07.599Z,80.89
2022-09-07T07:40:16.996Z,81.29
2022-09-07T07:42:09.564Z,81.15
2022-09-07T07:43:07.767Z,80.95
2022-09-07T07:44:08.547Z,80.05
2022-09-07T07:46:09.624Z,78.61
2022-09-07T07:47:07.527Z,78.58
2022-09-07T07:48:07.526Z,77.32
2022-09-07T07:49:07.537Z,76.68
2022-09-07T07:51:12.133Z,77.48
2022-09-07T07:54:09.501Z,77.28
2022-09-07T07:56:09.479Z,75.55
2022-09-07T07:57:07.650Z,76.15
2022-09-07T07:58:07.452Z,75.38
2022-09-07T07:59:07.461Z,74.75
2022-09-07T08:00:07.428Z,75.25
2022-09-07T08:01:07.470Z,74.79
2022-09-07T08:02:07.504Z,74.79
2022-09-07T08:03:07.406Z,76.58
2022-09-07T08:04:07.426Z,75.74
2022-09-07T08:05:07.390Z,74.95
2022-09-07T08:06:07.383Z,75.21
2022-09-07T08:07:10.611Z,73.11
2022-09-07T08:08:08.365Z,74.11
2022-09-07T08:09:07.381Z,73.11
2022-09-07T08:10:07.364Z,73.18
2022-09-07T08:11:07.345Z,71.95
2022-09-07T08:12:07.333Z,72.25
2022-09-07T08:13:07.329Z,72.45
2022-09-07T08:14:07.348Z,72.02
2022-09-07T08:15:07.318Z,70.72
2022-09-07T08:16:07.334Z,69.16
2022-09-07T08:17:07.293Z,70.75
2022-09-07T08:18:07.285Z,70.45
2022-09-07T08:19:07.302Z,69.20
2022-09-07T08:20:07.291Z,70.06
2022-09-07T08:21:07.262Z,70.65
2022-09-07T08:22:07.262Z,70.16
2022-09-07T08:23:07.252Z,68.93
2022-09-07T08:24:07.266Z,70.42
2022-09-07T08:25:07.244Z,69.39
2022-09-07T08:26:07.242Z,68.53
2022-09-07T08:27:07.222Z,68.50
2022-09-07T08:28:07.238Z,67.70
2022-09-07T08:29:07.230Z,67.17
2022-09-07T08:30:07.192Z,67.86
2022-09-07T08:31:07.234Z,67.47
2022-09-07T08:32:07.185Z,66.57
2022-09-07T08:33:07.174Z,66.14
2022-09-07T08:34:07.193Z,66.35
2022-09-07T08:35:07.178Z,66.81
2022-09-07T08:36:07.153Z,66.21
2022-09-07T08:37:07.156Z,64.98
2022-09-07T08:38:07.143Z,64.92
2022-09-07T08:39:07.156Z,63.92
2022-09-07T08:40:07.262Z,64.12
2022-09-07T08:41:07.118Z,64.42
2022-09-07T08:42:07.111Z,64.22
2022-09-07T08:43:07.097Z,64.32
2022-09-07T08:44:07.111Z,64.62
2022-09-07T08:45:07.068Z,63.89
2022-09-07T08:46:08.104Z,64.66
2022-09-07T08:47:07.064Z,62.87
2022-09-07T08:48:07.055Z,62.67
2022-09-07T08:49:07.078Z,62.27
2022-09-07T08:50:07.378Z,62.94
2022-09-07T08:51:07.041Z,61.35
2022-09-07T08:52:07.028Z,62.12
2022-09-07T08:53:07.021Z,60.83
2022-09-07T08:54:07.038Z,60.72
2022-09-07T08:55:07.010Z,60.43
2022-09-07T08:56:06.997Z,60.53
2022-09-07T08:57:22.399Z,60.23
2022-09-07T08:58:18.025Z,60.16
2022-09-07T08:59:08.011Z,60.26
2022-09-07T09:00:06.965Z,61.22
2022-09-07T09:04:17.265Z,61.32
2022-09-07T09:05:17.581Z,59.80
2022-09-07T09:06:09.011Z,59.61
2022-09-07T09:07:07.037Z,59.38
2022-09-07T09:08:06.908Z,58.95
2022-09-07T09:09:06.922Z,59.01
2022-09-07T09:10:06.894Z,58.91
2022-09-07T09:11:06.884Z,59.34
2022-09-07T09:12:06.903Z,59.93
2022-09-07T09:13:06.870Z,60.50
2022-09-07T09:14:06.894Z,59.51
2022-09-07T09:15:06.866Z,58.94
2022-09-07T09:16:06.913Z,59.70
2022-09-07T09:17:06.847Z,59.74
2022-09-07T09:18:08.161Z,60.03
2022-09-07T09:19:06.854Z,59.83
2022-09-07T09:20:06.824Z,59.74
2022-09-07T09:21:06.815Z,59.34
2022-09-07T09:22:06.806Z,59.74
2022-09-07T09:23:06.798Z,59.83
2022-09-07T09:24:06.823Z,60.43
2022-09-07T09:25:07.786Z,60.43
2022-09-07T09:26:06.777Z,60.26
2022-09-07T09:27:06.773Z,60.63
2022-09-07T09:28:06.765Z,61.52
2022-09-07T09:29:06.756Z,59.63
2022-09-07T09:30:06.780Z,59.63
2022-09-07T09:31:06.757Z,60.06
2022-09-07T09:32:06.734Z,60.56
2022-09-07T09:33:06.731Z,60.26
2022-09-07T09:34:06.723Z,60.53
2022-09-07T09:35:06.740Z,60.56
2022-09-07T09:36:06.702Z,60.26
2022-09-07T09:37:06.693Z,60.16
2022-09-07T09:38:06.689Z,61.52
2022-09-07T09:39:06.680Z,60.63
2022-09-07T09:40:06.771Z,60.63
2022-09-07T09:41:06.663Z,61.35
2022-09-07T09:42:06.652Z,61.52
2022-09-07T09:43:06.653Z,61.52
2022-09-07T09:44:06.650Z,60.53
2022-09-07T09:45:06.660Z,60.30
2022-09-07T09:46:13.900Z,60.10
2022-09-07T09:48:08.616Z,60.93
2022-09-07T09:49:06.607Z,60.53
2022-09-07T09:50:06.952Z,61.22
2022-09-07T09:53:08.580Z,60.33
2022-09-07T09:54:06.624Z,60.99
2022-09-07T09:55:32.645Z,59.97
2022-09-07T09:56:08.568Z,59.35
2022-09-07T09:57:06.546Z,59.25
2022-09-07T10:00:12.102Z,59.78
2022-09-07T10:01:25.414Z,59.97
2022-09-07T10:04:13.157Z,59.80
2022-09-07T10:05:08.513Z,60.60
2022-09-07T10:06:06.477Z,60.40
2022-09-07T10:07:06.472Z,60.86
2022-09-07T10:08:06.467Z,60.77
2022-09-07T10:09:06.460Z,60.17
2022-09-07T10:10:06.470Z,60.37
2022-09-07T10:11:06.440Z,60.44
2022-09-07T10:12:07.409Z,61.16
2022-09-07T10:13:06.429Z,61.19
2022-09-07T10:14:06.420Z,61.36
2022-09-07T10:15:06.439Z,61.46
2022-09-07T10:16:06.555Z,61.46
2022-09-07T10:17:06.407Z,60.47
2022-09-07T10:18:06.386Z,61.36
2022-09-07T10:19:06.404Z,60.17
2022-09-07T10:20:06.428Z,60.54
2022-09-07T10:21:06.395Z,61.07
2022-09-07T10:22:06.360Z,60.14
2022-09-07T10:23:06.361Z,61.16
2022-09-07T10:24:06.357Z,61.43
2022-09-07T10:25:06.368Z,60.67
2022-09-07T10:26:06.334Z,62.12
2022-09-07T10:27:06.324Z,62.88
2022-09-07T10:28:06.319Z,62.68
2022-09-07T10:29:06.853Z,62.68
2022-09-07T10:30:07.329Z,63.02
2022-09-07T10:31:08.059Z,61.96
2022-09-07T10:32:06.281Z,60.45
2022-09-07T10:33:06.286Z,59.63
2022-09-07T10:35:08.287Z,59.27
2022-09-07T10:36:06.256Z,59.86
2022-09-07T10:37:06.242Z,59.49
2022-09-07T10:38:06.235Z,59.06
2022-09-07T10:39:06.238Z,59.44
2022-09-07T10:40:06.278Z,58.94
2022-09-07T10:41:06.249Z,59.63
2022-09-07T10:42:06.222Z,58.90
2022-09-07T10:43:22.077Z,60.31
2022-09-07T10:44:09.292Z,61.33
2022-09-07T10:45:06.217Z,61.33
2022-09-07T10:46:06.245Z,61.76
2022-09-07T10:47:06.262Z,62.75
2022-09-07T10:48:06.190Z,63.61
2022-09-07T10:49:06.165Z,62.59
2022-09-07T10:50:22.111Z,60.08
2022-09-07T10:51:14.082Z,59.36
2022-09-07T10:52:08.133Z,59.33
2022-09-07T10:53:23.494Z,58.81
2022-09-07T10:55:08.138Z,58.78
2022-09-07T10:56:06.116Z,57.79
2022-09-07T10:57:06.099Z,58.49
2022-09-07T10:58:06.136Z,57.73
2022-09-07T10:59:06.119Z,58.15
2022-09-07T11:00:09.656Z,58.45
2022-09-07T11:01:07.111Z,59.33
2022-09-07T11:02:06.063Z,58.25
2022-09-07T11:04:08.047Z,59.63
2022-09-07T11:05:06.068Z,58.32
2022-09-07T11:06:06.028Z,58.49
2022-09-07T11:07:06.029Z,56.71
2022-09-07T11:08:06.019Z,57.53
2022-09-07T11:09:21.424Z,57.73
2022-09-07T11:10:08.044Z,57.75
2022-09-07T11:11:05.997Z,58.02
2022-09-07T11:12:06.004Z,56.91
2022-09-07T11:13:05.983Z,55.79
2022-09-07T11:14:12.839Z,55.72
2022-09-07T11:15:08.005Z,55.92
2022-09-07T11:16:06.339Z,56.31
2022-09-07T11:17:06.090Z,55.52
2022-09-07T11:18:05.944Z,55.40
2022-09-07T11:19:36.965Z,55.69
2022-09-07T11:20:07.979Z,55.57
2022-09-07T11:21:05.975Z,54.78
2022-09-07T11:22:06.030Z,54.58
2022-09-07T11:23:05.908Z,54.09
2022-09-07T11:24:05.890Z,54.90
2022-09-07T11:26:07.908Z,53.64
2022-09-07T11:27:05.866Z,53.15
2022-09-07T11:28:05.856Z,53.62
2022-09-07T11:30:07.913Z,52.01
2022-09-07T11:31:05.914Z,52.19
2022-09-07T11:32:05.829Z,52.06
2022-09-07T11:33:05.821Z,51.18
2022-09-07T11:35:07.804Z,52.66
2022-09-07T11:36:09.860Z,51.87
2022-09-07T11:37:07.806Z,50.88
2022-09-07T11:38:05.808Z,51.07
2022-09-07T11:39:05.775Z,50.98
2022-09-07T11:40:05.842Z,51.35
2022-09-07T11:41:05.783Z,51.12
2022-09-07T11:43:11.313Z,51.18
2022-09-07T11:44:05.759Z,50.88
2022-09-07T11:45:05.730Z,50.98
2022-09-07T11:46:05.778Z,50.85
2022-09-07T11:47:05.719Z,50.98
2022-09-07T11:48:05.701Z,50.68
2022-09-07T11:49:05.701Z,51.97
2022-09-07T11:50:05.704Z,50.68
2022-09-07T11:51:06.707Z,51.03
2022-09-07T11:52:05.769Z,49.26
2022-09-07T11:53:06.670Z,50.34
2022-09-07T11:54:05.663Z,49.33
2022-09-07T11:55:05.655Z,49.43
2022-09-07T11:56:05.675Z,49.65
2022-09-07T11:57:05.644Z,49.82
2022-09-07T11:58:05.637Z,49.75
2022-09-07T11:59:05.626Z,49.35
2022-09-07T12:00:05.721Z,49.33
2022-09-07T12:01:05.648Z,48.52
2022-09-07T12:02:05.654Z,49.60
2022-09-07T12:03:06.641Z,49.95
2022-09-07T12:04:05.685Z,51.20
2022-09-07T12:05:05.579Z,50.61
2022-09-07T12:06:05.596Z,50.98
2022-09-07T12:07:05.575Z,50.73
2022-09-07T12:08:05.561Z,51.75
2022-09-07T12:09:05.558Z,51.54
2022-09-07T12:10:05.621Z,51.52
2022-09-07T12:11:05.573Z,51.52
2022-09-07T12:12:05.531Z,51.10
2022-09-07T12:13:05.525Z,50.88
2022-09-07T12:14:05.524Z,49.92
2022-09-07T12:15:05.509Z,51.07
2022-09-07T12:16:05.680Z,50.46
2022-09-07T12:17:05.491Z,50.38
2022-09-07T12:18:05.506Z,50.68
2022-09-07T12:19:05.485Z,51.07
2022-09-07T12:20:05.473Z,50.78
2022-09-07T12:21:05.494Z,50.76
2022-09-07T12:22:05.490Z,49.75
2022-09-07T12:23:05.847Z,50.04
2022-09-07T12:24:05.443Z,49.16
2022-09-07T12:25:05.437Z,49.04
2022-09-07T12:26:05.423Z,48.74
2022-09-07T12:27:05.446Z,48.83
2022-09-07T12:28:05.411Z,48.74
2022-09-07T12:29:05.414Z,48.83
2022-09-07T12:30:05.398Z,48.76
2022-09-07T12:31:05.428Z,48.66
2022-09-07T12:32:53.462Z,49.20
2022-09-07T12:33:07.444Z,49.92
2022-09-07T12:34:05.375Z,51.23
2022-09-07T12:35:05.357Z,49.74
2022-09-07T12:36:05.376Z,51.13
2022-09-07T12:37:06.800Z,50.93
2022-09-07T12:38:06.337Z,50.81
2022-09-07T12:39:05.324Z,49.90
2022-09-07T12:40:05.370Z,49.90
2022-09-07T12:41:05.337Z,49.20
2022-09-07T12:43:09.825Z,49.43
2022-09-07T12:44:06.290Z,49.72
2022-09-07T12:45:05.289Z,49.92
2022-09-07T12:46:05.355Z,50.09
2022-09-07T12:47:05.273Z,49.30
2022-09-07T12:48:05.262Z,49.20
2022-09-07T12:49:05.256Z,48.91
2022-09-07T12:50:05.251Z,49.33
2022-09-07T12:51:05.273Z,49.62
2022-09-07T12:52:14.905Z,49.92
2022-09-07T12:53:07.236Z,49.94
2022-09-07T12:54:05.231Z,50.36
2022-09-07T12:55:26.566Z,49.45
2022-09-07T12:56:22.507Z,49.74
2022-09-07T12:58:07.186Z,48.91
2022-09-07T12:59:05.181Z,48.88
2022-09-07T13:00:05.172Z,47.90
2022-09-07T13:01:05.600Z,47.88
2022-09-07T13:02:06.244Z,47.48
2022-09-07T13:03:05.366Z,47.88
2022-09-07T13:04:05.209Z,47.97
2022-09-07T13:05:05.132Z,47.41
2022-09-07T13:06:05.129Z,47.80
2022-09-07T13:07:05.151Z,47.41
2022-09-07T13:08:09.081Z,47.01
2022-09-07T13:09:06.105Z,46.89
2022-09-07T13:10:05.100Z,47.38
2022-09-07T13:11:05.094Z,47.06
2022-09-07T13:12:05.427Z,46.28
2022-09-07T13:13:05.077Z,45.29
2022-09-07T13:14:08.689Z,45.59
2022-09-07T13:15:06.062Z,45.68
2022-09-07T13:16:05.092Z,45.78
2022-09-07T13:17:20.507Z,45.68
2022-09-07T13:18:07.040Z,46.28
2022-09-07T13:19:05.033Z,47.16
2022-09-07T13:20:05.027Z,46.10
2022-09-07T13:21:05.022Z,46.30
2022-09-07T13:22:05.030Z,46.32
2022-09-07T13:23:05.004Z,46.32
2022-09-07T13:24:45.502Z,47.43
2022-09-07T13:25:07.009Z,47.65
2022-09-07T13:26:04.981Z,47.38
2022-09-07T13:27:05.002Z,47.57
2022-09-07T13:28:05.997Z,47.75
2022-09-07T13:29:05.957Z,47.92
2022-09-07T13:30:04.959Z,47.13
2022-09-07T13:31:04.990Z,47.43
2022-09-07T13:32:04.957Z,47.63